KWRI/WRI METAR and TAF weather

Enter ICAO airport designator
Station Type Date Time Source
KWRI METAR 2020/09/27 02:58 UTC NOAA

KWRI 270258Z 00000KT 1 1/8SM BR BKN001 17/17 A3002 RMK TWR VIS 1/4 VIS 1 1/8V7 VIS 3/8 RWY24 VIS 5/8 RWY36 BKN V SCT CIG 000 RWY24 SLP165 $


Station Type Date Time Source
KWRI Decoded METAR 2020/09/27 02:58 UTC NOAA

Mcguire Air Force Base, NJ, United States (KWRI) 40-01N 074-36W
Sep 26, 2020 - 10:58 PM EDT / 2020.09.27 0258 UTC
Wind: Calm:0
Visibility: 1 1/8 mile(s):0
Sky conditions: mostly cloudy
Weather: mist
Temperature: 62 F (17 C)
Dew Point: 62 F (17 C)
Relative Humidity: 100%
Pressure (altimeter): 30.02 in. Hg (1016 hPa)
ob: KWRI 270258Z 00000KT 1 1/8SM BR BKN001 17/17 A3002 RMK TWR VIS 1/4 VIS 1 1/8V7 VIS 3/8 RWY24 VIS 5/8 RWY36 BKN V SCT CIG 000 RWY24 SLP165
cycle: 3

Station Type Date Time Source
KWRI TAF 2020/09/27 03:33 UTC NOAA

TAF TAF
AMD KWRI 270329Z 2703/2808 13005KT 2400 BR BKN001 QNH3001INS
BECMG 2708/2709 VRB06KT 4800 BR BKN009 OVC015 QNH2996INS
TEMPO 2709/2712 2400 BR BKN006
BECMG 2715/2716 12006KT 9999 NSW SCT009 BKN012 QNH2988INS
BECMG 2803/2804 17005KT 9999 BKN009 OVC015 QNH2990INS TX26/2718Z TN18/2710Z

Example: see airport list